Close

Questo sito utlizza cookie. Può leggere come li usiamo nella nostra Privacy Policy.

Ronchi Tower
Ronchi Tower

From Facebook

METAR & TAF

2021/09/19 14:20 LIPQ 191420Z AUTO VRB02KT 9999 -RA OVC029/// 23/18 Q1009
2021/09/19 12:21 TAF LIPQ 191100Z 1912/2012 VRB05KT 9999 BKN060 TEMPO 1912/2002 4000 TSRA
2021/09/19 14:20 LIPZ 191420Z 08009KT 9999 FEW015CB SCT033 BKN040 21/18 Q1009 NOSIG
2021/09/19 12:21 TAF LIPZ 191100Z 1912/2018 05007KT 9999 FEW015 SCT040 TEMPO 1912/1923 4000 TSRA
2021/09/19 14:20 LIPH 191420Z 04007KT 360V070 4000 TSRA SCT020CB BKN040 19/17 Q1010
2021/09/19 12:21 TAF LIPH 191100Z 1912/2012 VRB05KT 9999 SCT040 TEMPO 1912/1918 4000 TSRA
2021/09/19 14:20 LIRF 191420Z 23012KT 9999 FEW025 26/19 Q1013 NOSIG
2021/09/19 12:21 TAF LIRF 191100Z 1912/2018 24015KT 9999 SCT030 TEMPO 1913/1916 SHRA TEMPO 1913/1920 25018G28KT BECMG 2002/2004 08008KT BECMG 2009/2011 24012KT
2021/09/19 14:20 LIML 191420Z 35008KT 9999 SCT030 22/14 Q1008 NOSIG
2021/09/19 12:21 TAF LIML 191100Z 1912/2012 11012KT 9999 BKN030 TEMPO 1912/1916 TSRA BECMG 1916/1918 VRB05KT BECMG 2010/2012 10010KT
2021/09/19 14:20 EDDM 191420Z 02007KT 320V060 9999 SCT034 19/11 Q1013 NOSIG
2021/09/19 12:27 TAF EDDM 191100Z 1912/2018 07009KT 9999 BKN030 BECMG 1917/1919 30005KT BECMG 1923/2001 VRB03KT TEMPO 2001/2007 3000 BR BKN006 BECMG 2008/2010 03005KT
2021/09/19 14:20 EGSS 191420Z AUTO 31006KT 9999 VCTS FEW044/// //////CB 20/16 Q1014
2021/09/19 12:09 TAF EGSS 191056Z 1912/2018 30007KT 9999 SCT025 TEMPO 1912/2002 6000 RA SHRA BKN010 PROB40 TEMPO 1912/2001 4000 +SHRA BKN006 BECMG 2001/2004 SCT002 BKN006 TEMPO 2002/2014 6000 SHRA PROB40 2002/2010 2000 BR BKN002 BECMG 2010/2013 36010KT SCT025
2021/09/19 14:20 EDDF 191420Z 02010KT 9999 FEW036 19/11 Q1014 NOSIG
2021/09/19 12:28 TAF EDDF 191100Z 1912/2018 05007KT 9999 SCT030 BECMG 1912/1914 BKN030 BECMG 2008/2010 SCT035

FlightRadar24

Radar Meteo

Traffic data

Agosto 2018

Passeggeri: 63892-12,9% (rank: 23)
Nazionali 34490 -19,8%
Internazionali 29193 -3,0%

Movimenti: 1307+11,7% (rank: 24)
Tot commerciale 556 -7,2%
Aviazione generale 751 +31,5%

Cargo (tons): 20,6+62,5% (rank: 21)

Gennaio - Agosto 2018

Passeggeri: 507438-3,5% (rank: 23)
Nazionali 322655 -4,9%
Internazionali 182927 -0,7%

Movimenti: 10366-4,25 (rank: 22)
Tot commerciale 5328 -11,0%
Aviazione generale 5038 +4,2%

Cargo (tons): 299,2+61,9% (rank: 20)

Photo

Dassault Falcon 7X
Dassault Falcon 7X
Distinct views: 22
Douglas DC-6B
Douglas DC-6B
Distinct views: 71
Reims F152
Reims F152
Distinct views: 134
Embraer ERJ-170
Embraer ERJ-170
Total views: 3858